Time;durP1;ratioP1;P1;durP2;ratioP2;P2;SDS_P1;SDS_P2;PMS_P1;PMS_P2;Temp;Humidity;BMP_temperature;BMP_pressure;BME280_temperature;BME280_humidity;BME280_pressure;Samples;Min_cycle;Max_cycle;Signal;HPM_P1;HPM_P2
2022/01/26 00:00:56;;;;;;;43.93;24.53;;;;;;;;;;5098968;28;20447;-66
2022/01/26 00:06:14;;;;;;;47.50;23.37;;;;;;;;;;5099419;28;20478;-67
2022/01/26 00:08:42;;;;;;;49.23;23.97;;;;;;;;;;5098942;28;20479;-67
2022/01/26 00:11:11;;;;;;;47.73;23.23;;;;;;;;;;5099238;28;20517;-67
2022/01/26 00:13:39;;;;;;;47.97;21.60;;;;;;;;;;5099331;28;20456;-67
2022/01/26 00:16:13;;;;;;;45.20;25.00;;;;;;;;;;5097992;28;21004;-67
2022/01/26 00:18:41;;;;;;;44.40;22.10;;;;;;;;;;5098577;28;20815;-67
2022/01/26 00:21:16;;;;;;;40.50;22.00;;;;;;;;;;5099091;28;20449;-67
2022/01/26 00:26:35;;;;;;;48.37;24.03;;;;;;;;;;5091361;28;20467;-67
2022/01/26 00:29:12;;;;;;;51.80;24.10;;;;;;;;;;5113077;28;20482;-68
2022/01/26 00:40:03;;;;;;;51.53;27.60;;;;;;;;;;5105267;28;20435;-67
2022/01/26 00:42:37;;;;;;;64.37;27.73;;;;;;;;;;5101396;28;20992;-67
2022/01/26 00:45:05;;;;;;;56.57;26.27;;;;;;;;;;5119177;28;20443;-67
2022/01/26 00:47:33;;;;;;;52.20;26.23;;;;;;;;;;5114741;28;20482;-67
2022/01/26 00:50:05;;;;;;;45.23;25.27;;;;;;;;;;5098335;28;20439;-67
2022/01/26 00:52:40;;;;;;;47.47;22.80;;;;;;;;;;5098341;28;20452;-67
2022/01/26 00:55:09;;;;;;;45.40;23.13;;;;;;;;;;5101212;28;20448;-67
2022/01/26 00:57:39;;;;;;;46.37;23.93;;;;;;;;;;5115977;28;20463;-67
2022/01/26 01:00:08;;;;;;;47.70;24.63;;;;;;;;;;5118435;27;20449;-67
2022/01/26 01:02:36;;;;;;;42.50;23.37;;;;;;;;;;5114185;28;20531;-67
2022/01/26 01:05:13;;;;;;;48.30;24.10;;;;;;;;;;5098122;28;20768;-67
2022/01/26 01:07:42;;;;;;;43.40;23.80;;;;;;;;;;5097642;28;20486;-67
2022/01/26 01:10:10;;;;;;;46.33;24.13;;;;;;;;;;5097921;28;20466;-67
2022/01/26 01:12:43;;;;;;;45.03;24.53;;;;;;;;;;5097651;28;20452;-67
2022/01/26 01:15:11;;;;;;;41.60;22.20;;;;;;;;;;5098378;28;20450;-67
2022/01/26 01:17:43;;;;;;;43.23;24.17;;;;;;;;;;5097312;28;20473;-67
2022/01/26 01:20:23;;;;;;;40.00;21.83;;;;;;;;;;5098155;28;20458;-67
2022/01/26 01:23:10;;;;;;;45.37;24.00;;;;;;;;;;5097830;28;20447;-68
2022/01/26 01:28:47;;;;;;;47.67;23.03;;;;;;;;;;5086555;28;20478;-67
2022/01/26 01:31:27;;;;;;;46.33;22.93;;;;;;;;;;5097811;28;20444;-67
2022/01/26 01:33:55;;;;;;;44.40;23.43;;;;;;;;;;5097543;28;20439;-67
2022/01/26 01:36:23;;;;;;;43.23;22.13;;;;;;;;;;5097683;28;20483;-67
2022/01/26 01:38:54;;;;;;;54.50;25.40;;;;;;;;;;5104000;28;20443;-67
2022/01/26 01:41:23;;;;;;;47.37;24.50;;;;;;;;;;5097871;28;20443;-67
2022/01/26 01:43:52;;;;;;;41.13;23.37;;;;;;;;;;5107697;28;20446;-67
2022/01/26 01:46:20;;;;;;;42.53;22.87;;;;;;;;;;5118109;28;20465;-68
2022/01/26 01:48:48;;;;;;;44.20;22.80;;;;;;;;;;5107922;28;20503;-68
2022/01/26 01:51:17;;;;;;;38.97;21.70;;;;;;;;;;5097653;28;20440;-68
2022/01/26 01:53:45;;;;;;;44.30;21.90;;;;;;;;;;5097734;28;20458;-67
2022/01/26 01:56:14;;;;;;;43.23;22.50;;;;;;;;;;5108724;28;20465;-68
2022/01/26 01:58:42;;;;;;;46.40;23.03;;;;;;;;;;5103290;28;20939;-68
2022/01/26 02:01:11;;;;;;;41.10;22.50;;;;;;;;;;5097795;28;20447;-68
2022/01/26 02:03:40;;;;;;;41.57;21.77;;;;;;;;;;5097340;28;20448;-67
2022/01/26 02:06:08;;;;;;;42.87;25.87;;;;;;;;;;5097542;28;20466;-67
2022/01/26 02:08:36;;;;;;;46.87;24.33;;;;;;;;;;5097390;28;20484;-67
2022/01/26 02:11:06;;;;;;;49.10;22.20;;;;;;;;;;5097292;28;20832;-68
2022/01/26 02:13:42;;;;;;;43.07;23.37;;;;;;;;;;5097358;28;20976;-67
2022/01/26 02:16:19;;;;;;;44.60;23.30;;;;;;;;;;5097595;28;20473;-67
2022/01/26 02:19:05;;;;;;;44.83;22.63;;;;;;;;;;5103066;28;20504;-67
2022/01/26 02:49:38;;;;;;;46.53;23.27;;;;;;;;;;5100342;28;20483;-67
2022/01/26 02:52:17;;;;;;;37.43;20.57;;;;;;;;;;5100389;28;20817;-68
2022/01/26 02:55:10;;;;;;;34.70;18.33;;;;;;;;;;5100511;28;20443;-67
2022/01/26 02:57:53;;;;;;;41.03;19.07;;;;;;;;;;5105732;28;20463;-68
2022/01/26 03:00:26;;;;;;;38.93;21.57;;;;;;;;;;5100723;28;20443;-67
2022/01/26 03:02:58;;;;;;;32.30;20.10;;;;;;;;;;5100568;28;20901;-68
2022/01/26 03:05:31;;;;;;;34.73;19.30;;;;;;;;;;5109089;28;20479;-68
2022/01/26 03:08:03;;;;;;;35.53;19.23;;;;;;;;;;5120628;28;20922;-68
2022/01/26 03:10:42;;;;;;;34.20;19.30;;;;;;;;;;5119922;28;20453;-67
2022/01/26 03:13:14;;;;;;;32.00;20.27;;;;;;;;;;5120701;28;20457;-67
2022/01/26 03:15:46;;;;;;;29.03;17.90;;;;;;;;;;5112394;28;20467;-67
2022/01/26 03:18:46;;;;;;;29.97;18.63;;;;;;;;;;5101070;28;20881;-67
2022/01/26 03:21:16;;;;;;;29.80;17.47;;;;;;;;;;5100379;28;20439;-67
2022/01/26 03:29:28;;;;;;;39.17;15.97;;;;;;;;;;5099791;28;20475;-67
2022/01/26 03:34:42;;;;;;;26.37;17.03;;;;;;;;;;5099669;28;20454;-67
2022/01/26 03:37:10;;;;;;;23.30;15.07;;;;;;;;;;5099299;28;20479;-67
2022/01/26 03:39:40;;;;;;;24.47;14.77;;;;;;;;;;5100071;28;20432;-68
2022/01/26 03:42:14;;;;;;;26.50;16.70;;;;;;;;;;5099990;28;20459;-68
2022/01/26 03:44:42;;;;;;;24.67;16.33;;;;;;;;;;5115258;28;20442;-67
2022/01/26 03:47:10;;;;;;;28.40;17.10;;;;;;;;;;5120079;28;20467;-68
2022/01/26 03:49:38;;;;;;;28.23;16.73;;;;;;;;;;5119009;28;20485;-67
2022/01/26 03:52:07;;;;;;;27.30;16.43;;;;;;;;;;5119878;28;20449;-67
2022/01/26 03:54:35;;;;;;;24.83;15.70;;;;;;;;;;5105156;28;20447;-67
2022/01/26 03:57:03;;;;;;;28.07;17.60;;;;;;;;;;5110180;28;20546;-68
2022/01/26 03:59:32;;;;;;;29.97;17.03;;;;;;;;;;5098976;28;20443;-67
2022/01/26 04:02:00;;;;;;;26.97;16.17;;;;;;;;;;5099289;28;20803;-67
2022/01/26 04:04:34;;;;;;;25.77;16.90;;;;;;;;;;5113090;28;20447;-68
2022/01/26 04:07:02;;;;;;;25.00;15.90;;;;;;;;;;5119388;28;20549;-68
2022/01/26 04:09:30;;;;;;;26.47;15.93;;;;;;;;;;5118701;28;20478;-68
2022/01/26 04:11:59;;;;;;;25.37;17.70;;;;;;;;;;5119615;28;20538;-68
2022/01/26 04:14:31;;;;;;;29.47;17.37;;;;;;;;;;5119158;28;20457;-68
2022/01/26 04:17:00;;;;;;;24.03;16.20;;;;;;;;;;5115943;28;20553;-68
2022/01/26 04:19:31;;;;;;;31.60;17.70;;;;;;;;;;5117346;28;20488;-67
2022/01/26 04:22:09;;;;;;;28.90;18.03;;;;;;;;;;5119268;28;20431;-67
2022/01/26 04:24:41;;;;;;;27.73;17.80;;;;;;;;;;5119073;28;20447;-67
2022/01/26 04:27:18;;;;;;;27.93;19.53;;;;;;;;;;5119071;28;20488;-67
2022/01/26 04:29:47;;;;;;;29.13;17.17;;;;;;;;;;5115188;28;20466;-68
2022/01/26 04:32:17;;;;;;;30.33;17.93;;;;;;;;;;5119399;28;20442;-67
2022/01/26 04:34:47;;;;;;;29.17;17.73;;;;;;;;;;5114142;28;20474;-67
2022/01/26 04:37:25;;;;;;;29.20;17.70;;;;;;;;;;5118417;28;20466;-68
2022/01/26 04:39:57;;;;;;;27.83;17.60;;;;;;;;;;5118151;28;20453;-67
2022/01/26 04:42:33;;;;;;;29.70;18.03;;;;;;;;;;5107050;28;20439;-67
2022/01/26 04:45:05;;;;;;;28.30;16.67;;;;;;;;;;5107333;28;20443;-68
2022/01/26 04:47:35;;;;;;;25.57;16.33;;;;;;;;;;5106226;28;20984;-68
2022/01/26 04:50:04;;;;;;;31.30;16.63;;;;;;;;;;5107487;28;20479;-67
2022/01/26 04:52:32;;;;;;;28.17;18.07;;;;;;;;;;5109222;28;20454;-67
2022/01/26 04:55:00;;;;;;;29.87;16.63;;;;;;;;;;5110253;27;20443;-67
2022/01/26 04:57:28;;;;;;;31.90;17.00;;;;;;;;;;5106088;28;20455;-67
2022/01/26 04:59:56;;;;;;;25.55;16.40;;;;;;;;;;5103201;28;20444;-67
2022/01/26 05:02:24;;;;;;;29.23;16.90;;;;;;;;;;5105387;28;20202;-68
2022/01/26 05:04:53;;;;;;;31.87;17.77;;;;;;;;;;5108277;28;20451;-67
2022/01/26 05:07:21;;;;;;;28.58;16.63;;;;;;;;;;5106732;28;20458;-67
2022/01/26 05:09:49;;;;;;;27.47;17.03;;;;;;;;;;5105342;28;20217;-68
2022/01/26 05:12:18;;;;;;;30.23;17.13;;;;;;;;;;5106284;28;20450;-67
2022/01/26 05:14:48;;;;;;;32.33;18.33;;;;;;;;;;5102571;27;20202;-67
2022/01/26 05:17:20;;;;;;;31.50;17.10;;;;;;;;;;5106521;28;20466;-67
2022/01/26 05:19:48;;;;;;;29.03;18.43;;;;;;;;;;5105986;28;20447;-67
2022/01/26 05:22:17;;;;;;;27.50;16.00;;;;;;;;;;5096121;28;20450;-67
2022/01/26 05:24:45;;;;;;;25.03;15.20;;;;;;;;;;5096673;28;20439;-68
2022/01/26 05:27:13;;;;;;;30.50;15.40;;;;;;;;;;5103929;28;20472;-67
2022/01/26 05:29:41;;;;;;;26.17;15.43;;;;;;;;;;5103482;28;20475;-67
2022/01/26 05:32:09;;;;;;;33.30;17.37;;;;;;;;;;5106305;28;20440;-67
2022/01/26 05:34:37;;;;;;;29.40;17.53;;;;;;;;;;5105429;28;20486;-67
2022/01/26 05:37:05;;;;;;;34.13;18.93;;;;;;;;;;5104568;28;20831;-67
2022/01/26 05:39:37;;;;;;;26.25;17.55;;;;;;;;;;5108532;28;20465;-67
2022/01/26 05:42:06;;;;;;;27.48;16.27;;;;;;;;;;5103986;28;20202;-67
2022/01/26 05:44:34;;;;;;;30.85;16.33;;;;;;;;;;5106873;28;20204;-67
2022/01/26 05:47:03;;;;;;;30.45;16.70;;;;;;;;;;5103326;28;20308;-67
2022/01/26 05:49:31;;;;;;;30.70;15.88;;;;;;;;;;5108961;28;20287;-67
2022/01/26 05:51:59;;;;;;;32.35;17.73;;;;;;;;;;5098844;28;20208;-67
2022/01/26 05:54:27;;;;;;;29.37;16.43;;;;;;;;;;5097887;28;20205;-67
2022/01/26 05:56:56;;;;;;;28.03;16.87;;;;;;;;;;5106316;28;20468;-67
2022/01/26 05:59:24;;;;;;;33.73;19.27;;;;;;;;;;5097241;28;20812;-67
2022/01/26 06:01:52;;;;;;;35.28;18.25;;;;;;;;;;5097054;28;20447;-67
2022/01/26 06:04:20;;;;;;;33.83;18.08;;;;;;;;;;5097398;28;20209;-67
2022/01/26 06:06:48;;;;;;;36.67;20.17;;;;;;;;;;5107236;28;20221;-67
2022/01/26 06:09:16;;;;;;;38.70;18.90;;;;;;;;;;5105320;28;20803;-67
2022/01/26 06:11:44;;;;;;;39.78;20.58;;;;;;;;;;5105810;28;20217;-67
2022/01/26 06:14:14;;;;;;;35.23;18.37;;;;;;;;;;5107051;28;20206;-67
2022/01/26 06:16:42;;;;;;;36.53;19.93;;;;;;;;;;5110229;28;20465;-67
2022/01/26 06:19:10;;;;;;;36.20;18.13;;;;;;;;;;5106853;28;20474;-67
2022/01/26 06:21:38;;;;;;;34.80;18.03;;;;;;;;;;5110769;28;20435;-66
2022/01/26 06:24:06;;;;;;;38.08;18.85;;;;;;;;;;5108946;28;20450;-67
2022/01/26 06:26:34;;;;;;;30.17;15.40;;;;;;;;;;5108916;28;20221;-67
2022/01/26 06:29:02;;;;;;;32.07;15.97;;;;;;;;;;5101120;28;20447;-67
2022/01/26 06:31:34;;;;;;;37.50;18.57;;;;;;;;;;5101063;28;20479;-68
2022/01/26 06:34:03;;;;;;;33.63;17.05;;;;;;;;;;5101032;28;20440;-68
2022/01/26 06:36:31;;;;;;;36.28;18.08;;;;;;;;;;5104330;28;20240;-67
2022/01/26 06:38:59;;;;;;;39.40;18.05;;;;;;;;;;5105977;28;20201;-66
2022/01/26 06:41:27;;;;;;;33.17;17.00;;;;;;;;;;5110422;28;20193;-67
2022/01/26 06:44:02;;;;;;;32.80;16.80;;;;;;;;;;5103972;28;20477;-66
2022/01/26 06:46:41;;;;;;;30.90;16.48;;;;;;;;;;5101018;28;20474;-67
2022/01/26 06:51:55;;;;;;;30.67;16.23;;;;;;;;;;5120974;28;20482;-67
2022/01/26 06:54:23;;;;;;;37.60;18.13;;;;;;;;;;5110768;27;20453;-67
2022/01/26 06:56:51;;;;;;;43.97;19.53;;;;;;;;;;5108687;28;20825;-67
2022/01/26 06:59:20;;;;;;;36.27;16.93;;;;;;;;;;5104577;28;20960;-67
2022/01/26 07:01:50;;;;;;;34.57;18.90;;;;;;;;;;5120849;27;20803;-67
2022/01/26 07:04:18;;;;;;;30.73;17.13;;;;;;;;;;5120338;28;20474;-68
2022/01/26 07:06:46;;;;;;;34.88;17.98;;;;;;;;;;5120725;28;20466;-67
2022/01/26 07:09:16;;;;;;;29.67;17.08;;;;;;;;;;5108151;28;20202;-69
2022/01/26 07:11:45;;;;;;;31.55;18.15;;;;;;;;;;5100082;28;20589;-69
2022/01/26 07:14:22;;;;;;;35.67;19.03;;;;;;;;;;5100100;28;20288;-68
2022/01/26 07:19:55;;;;;;;38.35;19.08;;;;;;;;;;5105164;28;20197;-66
2022/01/26 07:22:23;;;;;;;30.63;15.40;;;;;;;;;;5108465;27;20194;-66
2022/01/26 07:24:51;;;;;;;30.67;19.43;;;;;;;;;;5109751;28;20201;-66
2022/01/26 07:27:18;;;;;;;31.15;17.10;;;;;;;;;;5107624;28;20460;-66
2022/01/26 07:29:50;;;;;;;33.88;19.00;;;;;;;;;;5099413;28;20344;-67
2022/01/26 07:32:19;;;;;;;39.77;19.37;;;;;;;;;;5102597;28;20218;-68
2022/01/26 07:34:48;;;;;;;29.57;17.40;;;;;;;;;;5099853;28;20938;-67
2022/01/26 07:37:17;;;;;;;33.40;17.33;;;;;;;;;;5098794;28;20474;-67
2022/01/26 07:39:49;;;;;;;38.15;18.48;;;;;;;;;;5100302;28;20444;-67
2022/01/26 07:42:16;;;;;;;33.75;18.02;;;;;;;;;;5099826;28;20209;-66
2022/01/26 07:44:44;;;;;;;37.37;18.73;;;;;;;;;;5098924;28;20280;-66
2022/01/26 07:47:12;;;;;;;31.10;17.73;;;;;;;;;;5099059;28;20470;-67
2022/01/26 07:49:42;;;;;;;36.50;18.67;;;;;;;;;;5098893;28;20982;-67
2022/01/26 07:52:10;;;;;;;32.37;17.10;;;;;;;;;;5099001;28;20479;-66
2022/01/26 07:54:38;;;;;;;34.22;17.75;;;;;;;;;;5114238;28;20443;-66
2022/01/26 07:57:07;;;;;;;39.33;18.67;;;;;;;;;;5109959;28;20236;-66
2022/01/26 07:59:35;;;;;;;31.58;17.05;;;;;;;;;;5098913;28;20447;-66
2022/01/26 08:02:03;;;;;;;30.45;15.30;;;;;;;;;;5099385;28;20204;-66
2022/01/26 08:04:32;;;;;;;29.38;15.63;;;;;;;;;;5104447;28;20200;-66
2022/01/26 08:07:01;;;;;;;29.73;15.45;;;;;;;;;;5106783;28;20312;-66
2022/01/26 08:09:29;;;;;;;36.83;16.95;;;;;;;;;;5104080;28;20205;-67
2022/01/26 08:11:57;;;;;;;31.55;16.33;;;;;;;;;;5099418;28;20228;-66
2022/01/26 08:14:25;;;;;;;29.90;14.73;;;;;;;;;;5105512;28;20205;-67
2022/01/26 08:16:53;;;;;;;28.52;16.23;;;;;;;;;;5098809;28;20794;-66
2022/01/26 08:19:21;;;;;;;28.65;15.65;;;;;;;;;;5105669;28;20626;-66
2022/01/26 08:21:49;;;;;;;28.98;16.38;;;;;;;;;;5106379;28;20561;-66
2022/01/26 08:24:19;;;;;;;26.48;15.45;;;;;;;;;;5103539;28;20206;-67
2022/01/26 08:26:49;;;;;;;25.38;14.90;;;;;;;;;;5098438;28;20229;-67
2022/01/26 08:29:22;;;;;;;27.10;14.15;;;;;;;;;;5098629;28;20202;-66
2022/01/26 08:31:50;;;;;;;23.15;13.45;;;;;;;;;;5098578;28;20229;-66
2022/01/26 08:34:18;;;;;;;21.20;12.80;;;;;;;;;;5103055;28;20202;-66
2022/01/26 08:36:46;;;;;;;26.85;13.18;;;;;;;;;;5097161;28;20269;-67
2022/01/26 08:39:14;;;;;;;24.77;13.40;;;;;;;;;;5101478;28;20201;-67
2022/01/26 08:41:43;;;;;;;30.05;19.55;;;;;;;;;;5098372;28;20205;-66
2022/01/26 08:44:11;;;;;;;24.83;15.18;;;;;;;;;;5098346;28;20208;-67
2022/01/26 08:46:39;;;;;;;22.42;13.13;;;;;;;;;;5098191;28;20236;-66
2022/01/26 08:49:07;;;;;;;23.92;13.65;;;;;;;;;;5103873;28;20205;-67
2022/01/26 08:51:35;;;;;;;22.92;14.35;;;;;;;;;;5118323;28;20302;-66
2022/01/26 08:54:04;;;;;;;24.58;13.55;;;;;;;;;;5112890;28;20784;-66
2022/01/26 08:56:32;;;;;;;23.90;13.20;;;;;;;;;;5109513;28;20247;-67
2022/01/26 08:59:01;;;;;;;21.10;13.23;;;;;;;;;;5098863;28;20204;-67
2022/01/26 09:01:29;;;;;;;21.00;12.10;;;;;;;;;;5098217;28;20676;-67
2022/01/26 09:03:58;;;;;;;21.90;13.93;;;;;;;;;;5102834;28;20202;-67
2022/01/26 09:06:26;;;;;;;24.73;14.20;;;;;;;;;;5115918;28;20221;-67
2022/01/26 09:09:01;;;;;;;22.30;14.67;;;;;;;;;;5117524;28;20457;-66
2022/01/26 09:11:29;;;;;;;22.70;13.63;;;;;;;;;;5103571;28;20477;-66
2022/01/26 09:13:58;;;;;;;24.97;15.93;;;;;;;;;;5105853;28;20479;-66
2022/01/26 09:16:29;;;;;;;22.90;12.93;;;;;;;;;;5103280;28;20970;-66
2022/01/26 09:19:05;;;;;;;25.80;15.20;;;;;;;;;;5102941;28;20451;-66
2022/01/26 09:21:33;;;;;;;27.65;15.30;;;;;;;;;;5097575;28;20209;-66
2022/01/26 09:24:01;;;;;;;27.80;15.65;;;;;;;;;;5097477;28;20213;-66
2022/01/26 09:26:29;;;;;;;24.67;14.38;;;;;;;;;;5097778;28;20315;-66
2022/01/26 09:28:57;;;;;;;26.92;16.08;;;;;;;;;;5097214;28;20244;-66
2022/01/26 09:31:25;;;;;;;26.20;14.60;;;;;;;;;;5097219;28;20206;-66
2022/01/26 09:33:55;;;;;;;28.10;16.73;;;;;;;;;;5106103;28;20246;-66
2022/01/26 09:36:23;;;;;;;26.80;15.20;;;;;;;;;;5117513;28;20672;-66
2022/01/26 09:38:51;;;;;;;24.67;14.43;;;;;;;;;;5110718;28;20454;-66
2022/01/26 09:41:20;;;;;;;23.90;14.00;;;;;;;;;;5099424;28;20453;-66
2022/01/26 09:43:49;;;;;;;24.63;15.00;;;;;;;;;;5106856;28;20485;-66
2022/01/26 09:46:17;;;;;;;27.53;15.73;;;;;;;;;;5105134;28;20459;-66
2022/01/26 09:48:45;;;;;;;28.73;16.20;;;;;;;;;;5112385;28;20512;-66
2022/01/26 09:51:16;;;;;;;24.70;14.70;;;;;;;;;;5104551;28;20435;-66
2022/01/26 09:53:44;;;;;;;25.67;16.10;;;;;;;;;;5113380;28;20485;-65
2022/01/26 09:56:12;;;;;;;20.93;13.60;;;;;;;;;;5114060;28;20459;-65
2022/01/26 09:58:40;;;;;;;23.33;14.80;;;;;;;;;;5101001;28;20452;-65
2022/01/26 10:01:08;;;;;;;20.93;13.93;;;;;;;;;;5100397;28;20450;-66
2022/01/26 10:03:36;;;;;;;26.43;15.30;;;;;;;;;;5101643;28;20518;-66
2022/01/26 10:06:07;;;;;;;20.37;13.43;;;;;;;;;;5096901;28;20559;-66
2022/01/26 10:09:01;;;;;;;21.73;14.20;;;;;;;;;;5096646;28;20443;-65
2022/01/26 10:19:54;;;;;;;21.00;14.27;;;;;;;;;;5095612;28;20954;-66
2022/01/26 10:22:26;;;;;;;20.63;13.67;;;;;;;;;;5096155;28;20427;-65
2022/01/26 10:25:04;;;;;;;18.47;13.90;;;;;;;;;;5103185;28;20458;-66
2022/01/26 10:27:52;;;;;;;20.40;12.37;;;;;;;;;;5105035;28;20450;-66
2022/01/26 10:30:20;;;;;;;22.37;12.93;;;;;;;;;;5108119;28;20449;-66
2022/01/26 10:32:48;;;;;;;22.47;14.10;;;;;;;;;;5117135;28;20478;-66
2022/01/26 10:35:17;;;;;;;22.80;15.07;;;;;;;;;;5102332;28;20488;-66
2022/01/26 10:37:49;;;;;;;22.33;13.23;;;;;;;;;;5096438;28;20485;-65
2022/01/26 10:40:23;;;;;;;18.67;12.50;;;;;;;;;;5115237;28;20495;-65
2022/01/26 10:42:59;;;;;;;27.30;14.27;;;;;;;;;;5117393;28;20444;-65
2022/01/26 10:45:45;;;;;;;25.37;13.70;;;;;;;;;;5101220;28;20479;-65
2022/01/26 10:48:22;;;;;;;25.83;13.93;;;;;;;;;;5096600;28;20550;-66
2022/01/26 10:53:40;;;;;;;22.40;15.00;;;;;;;;;;5096128;28;20978;-66
2022/01/26 10:56:10;;;;;;;22.93;12.93;;;;;;;;;;5105417;28;20950;-66
2022/01/26 10:58:37;;;;;;;23.43;13.33;;;;;;;;;;5101393;28;20454;-73
2022/01/26 11:01:06;;;;;;;20.77;13.03;;;;;;;;;;5101887;28;20530;-66
2022/01/26 11:03:34;;;;;;;23.37;13.87;;;;;;;;;;5104701;28;20436;-64
2022/01/26 11:06:04;;;;;;;22.07;13.67;;;;;;;;;;5100417;28;20472;-65
2022/01/26 11:08:37;;;;;;;21.77;13.67;;;;;;;;;;5109192;28;20474;-65
2022/01/26 11:11:05;;;;;;;21.90;14.17;;;;;;;;;;5112871;28;20448;-64
2022/01/26 11:13:39;;;;;;;25.23;15.17;;;;;;;;;;5108652;28;20471;-64
2022/01/26 11:16:07;;;;;;;21.77;14.23;;;;;;;;;;5107024;28;20471;-64
2022/01/26 11:18:46;;;;;;;28.87;16.27;;;;;;;;;;5108285;28;20486;-64
2022/01/26 11:21:25;;;;;;;23.53;14.80;;;;;;;;;;5107153;28;20483;-64
2022/01/26 11:24:03;;;;;;;25.40;13.20;;;;;;;;;;5098558;28;20838;-64
2022/01/26 11:26:32;;;;;;;31.13;15.33;;;;;;;;;;5108069;28;20826;-64
2022/01/26 11:29:01;;;;;;;25.87;15.73;;;;;;;;;;5107029;28;20442;-63
2022/01/26 11:31:33;;;;;;;23.07;14.33;;;;;;;;;;5108976;28;20447;-64
2022/01/26 11:34:17;;;;;;;22.33;14.23;;;;;;;;;;5099069;28;21083;-63
2022/01/26 11:36:45;;;;;;;23.97;15.47;;;;;;;;;;5109414;28;20539;-63
2022/01/26 11:42:15;;;;;;;24.13;14.10;;;;;;;;;;5108655;28;20851;-63
2022/01/26 11:45:08;;;;;;;29.37;14.33;;;;;;;;;;5051886;28;21007;-64
2022/01/26 11:47:38;;;;;;;24.00;15.27;;;;;;;;;;5108231;28;20466;-63
2022/01/26 11:50:14;;;;;;;25.27;15.05;;;;;;;;;;5113647;28;20793;-63
2022/01/26 11:52:45;;;;;;;22.07;15.03;;;;;;;;;;5119572;28;20211;-63
2022/01/26 11:55:24;;;;;;;23.07;15.00;;;;;;;;;;5103578;28;20450;-64
2022/01/26 11:57:54;;;;;;;27.83;14.73;;;;;;;;;;5104910;28;20463;-64
2022/01/26 12:00:42;;;;;;;27.42;14.98;;;;;;;;;;5099244;28;20447;-62
2022/01/26 12:03:20;;;;;;;22.87;13.63;;;;;;;;;;5098748;28;20202;-63
2022/01/26 12:05:49;;;;;;;30.13;14.27;;;;;;;;;;5099043;28;20451;-64
2022/01/26 12:08:31;;;;;;;25.83;14.27;;;;;;;;;;5098875;28;20447;-63
2022/01/26 12:10:59;;;;;;;21.63;13.10;;;;;;;;;;5098891;28;20452;-62
2022/01/26 12:13:28;;;;;;;22.73;14.23;;;;;;;;;;5098885;28;20471;-63
2022/01/26 12:16:04;;;;;;;21.47;13.57;;;;;;;;;;5099108;28;20459;-63
2022/01/26 12:18:37;;;;;;;28.57;15.60;;;;;;;;;;5099454;28;20475;-63
2022/01/26 12:32:21;;;;;;;23.43;14.77;;;;;;;;;;5098428;28;20447;-63
2022/01/26 12:34:59;;;;;;;22.27;13.57;;;;;;;;;;5114580;28;20489;-64
2022/01/26 12:37:40;;;;;;;23.50;14.13;;;;;;;;;;5118590;28;20969;-64
2022/01/26 12:43:01;;;;;;;19.57;13.00;;;;;;;;;;5118690;28;20443;-63
2022/01/26 12:45:54;;;;;;;20.70;11.47;;;;;;;;;;5098615;28;20446;-63
2022/01/26 12:48:24;;;;;;;17.83;11.80;;;;;;;;;;5098844;28;20452;-64
2022/01/26 12:50:52;;;;;;;22.97;15.23;;;;;;;;;;5098488;28;20934;-64
2022/01/26 12:53:23;;;;;;;19.93;11.37;;;;;;;;;;5101830;28;20561;-64
2022/01/26 12:55:54;;;;;;;23.93;12.23;;;;;;;;;;5118594;28;20441;-64
2022/01/26 12:58:24;;;;;;;21.60;12.30;;;;;;;;;;5103387;28;20447;-64
2022/01/26 13:00:53;;;;;;;23.27;12.40;;;;;;;;;;5119318;28;20522;-64
2022/01/26 13:03:23;;;;;;;23.73;14.13;;;;;;;;;;5118485;28;20478;-64
2022/01/26 13:05:52;;;;;;;25.43;13.70;;;;;;;;;;5118510;28;20799;-63
2022/01/26 13:08:20;;;;;;;19.10;12.63;;;;;;;;;;5114386;28;20531;-64
2022/01/26 13:10:48;;;;;;;22.00;12.53;;;;;;;;;;5098284;28;20443;-63
2022/01/26 13:13:21;;;;;;;20.80;12.17;;;;;;;;;;5097667;28;20444;-64
2022/01/26 13:16:00;;;;;;;23.20;12.00;;;;;;;;;;5098157;28;20450;-64
2022/01/26 13:21:45;;;;;;;23.23;12.37;;;;;;;;;;5094120;28;20822;-64
2022/01/26 13:24:30;;;;;;;16.30;10.23;;;;;;;;;;5097662;28;20448;-64
2022/01/26 13:27:07;;;;;;;22.83;12.60;;;;;;;;;;5097906;28;20478;-64
2022/01/26 13:29:49;;;;;;;25.80;12.63;;;;;;;;;;5097640;28;20447;-64
2022/01/26 13:32:57;;;;;;;18.00;10.53;;;;;;;;;;5097621;28;20791;-64
2022/01/26 13:35:47;;;;;;;18.77;10.60;;;;;;;;;;5097512;28;20498;-64
2022/01/26 13:38:30;;;;;;;17.53;12.10;;;;;;;;;;5099923;28;20452;-64
2022/01/26 13:41:07;;;;;;;23.37;11.63;;;;;;;;;;5105717;28;20510;-65
2022/01/26 13:52:04;;;;;;;23.33;13.00;;;;;;;;;;5103819;28;20432;-65
2022/01/26 14:00:01;;;;;;;24.07;13.07;;;;;;;;;;5094932;28;20470;-64
2022/01/26 14:02:32;;;;;;;21.07;11.77;;;;;;;;;;5097500;28;20452;-64
2022/01/26 14:05:00;;;;;;;18.37;11.23;;;;;;;;;;5097608;28;20439;-64
2022/01/26 14:07:28;;;;;;;25.73;12.30;;;;;;;;;;5104609;28;20973;-65
2022/01/26 14:09:58;;;;;;;24.27;13.70;;;;;;;;;;5117992;28;20447;-65
2022/01/26 14:12:29;;;;;;;26.77;13.63;;;;;;;;;;5117360;28;20454;-65
2022/01/26 14:14:59;;;;;;;23.63;13.53;;;;;;;;;;5117477;28;20484;-64
2022/01/26 14:17:37;;;;;;;26.80;12.90;;;;;;;;;;5105901;28;20970;-64
2022/01/26 14:20:15;;;;;;;27.60;13.67;;;;;;;;;;5097375;28;20456;-64
2022/01/26 14:23:02;;;;;;;24.93;13.30;;;;;;;;;;5097531;28;20516;-64
2022/01/26 14:25:33;;;;;;;23.63;13.10;;;;;;;;;;5096717;28;20439;-64
2022/01/26 14:28:05;;;;;;;26.73;14.20;;;;;;;;;;5095980;28;20447;-64
2022/01/26 14:30:43;;;;;;;25.70;13.23;;;;;;;;;;5097546;28;20454;-64
2022/01/26 14:36:20;;;;;;;21.60;12.97;;;;;;;;;;5107087;28;20543;-64
2022/01/26 15:08:41;;;;;;;27.90;13.50;;;;;;;;;;5100791;28;20452;-64
2022/01/26 15:33:05;;;;;;;25.10;13.90;;;;;;;;;;5119782;28;20449;-65
2022/01/26 15:35:18;;;;;;;29.37;16.07;;;;;;;;;;5118953;28;20833;-64
2022/01/26 15:40:46;;;;;;;28.07;14.80;;;;;;;;;;5109538;28;20447;-64
2022/01/26 15:48:56;;;;;;;26.17;14.83;;;;;;;;;;5098536;28;20985;-65
2022/01/26 15:51:51;;;;;;;29.90;16.80;;;;;;;;;;5097790;28;20936;-65
2022/01/26 15:57:26;;;;;;;32.47;17.90;;;;;;;;;;5109051;28;20485;-65
2022/01/26 16:05:55;;;;;;;33.77;16.33;;;;;;;;;;5110518;28;20431;-63
2022/01/26 16:08:33;;;;;;;34.63;18.17;;;;;;;;;;5107627;28;20435;-63
2022/01/26 16:16:58;;;;;;;32.90;16.97;;;;;;;;;;5105719;28;20475;-63
2022/01/26 16:37:40;;;;;;;31.60;16.00;;;;;;;;;;5108175;28;21045;-63
2022/01/26 17:02:42;;;;;;;30.97;16.00;;;;;;;;;;5101395;28;20451;-63
2022/01/26 18:04:13;;;;;;;41.23;19.23;;;;;;;;;;5099563;28;20813;-63
2022/01/26 18:17:57;;;;;;;35.50;18.00;;;;;;;;;;5100535;28;20473;-62
2022/01/26 18:49:13;;;;;;;37.47;19.93;;;;;;;;;;5063514;28;20453;-65
2022/01/26 18:51:42;;;;;;;43.20;19.97;;;;;;;;;;5100313;28;20471;-65
2022/01/26 18:54:13;;;;;;;45.87;21.20;;;;;;;;;;5110651;28;20451;-65
2022/01/26 18:56:41;;;;;;;39.87;20.70;;;;;;;;;;5111432;28;20481;-65
2022/01/26 18:59:10;;;;;;;40.33;19.83;;;;;;;;;;5106038;28;20476;-65
2022/01/26 19:01:38;;;;;;;37.50;19.43;;;;;;;;;;5107254;28;20927;-66
2022/01/26 19:04:26;;;;;;;40.13;19.90;;;;;;;;;;5108672;28;20444;-66
2022/01/26 19:06:55;;;;;;;35.17;18.27;;;;;;;;;;5106956;28;20455;-67
2022/01/26 19:09:26;;;;;;;39.40;19.73;;;;;;;;;;5116189;28;20453;-67
2022/01/26 19:11:55;;;;;;;33.13;17.47;;;;;;;;;;5120685;28;20451;-66
2022/01/26 19:14:27;;;;;;;37.47;18.63;;;;;;;;;;5118571;28;20473;-66
2022/01/26 19:17:00;;;;;;;40.77;18.93;;;;;;;;;;5120661;28;20494;-66
2022/01/26 19:19:37;;;;;;;44.97;20.43;;;;;;;;;;5108407;28;20459;-65
2022/01/26 19:22:27;;;;;;;35.03;17.97;;;;;;;;;;5110856;28;20451;-67
2022/01/26 19:25:01;;;;;;;37.93;19.33;;;;;;;;;;5113647;28;20491;-67
2022/01/26 19:27:34;;;;;;;31.63;17.03;;;;;;;;;;5099500;28;20491;-67
2022/01/26 19:30:33;;;;;;;37.33;19.83;;;;;;;;;;5100179;28;20451;-68
2022/01/26 19:33:17;;;;;;;36.10;19.53;;;;;;;;;;5099643;28;20444;-67
2022/01/26 19:44:16;;;;;;;41.10;19.97;;;;;;;;;;5107708;28;20452;-67
2022/01/26 19:47:13;;;;;;;36.07;16.63;;;;;;;;;;5098361;28;20481;-67
2022/01/26 19:52:26;;;;;;;40.33;18.57;;;;;;;;;;5118233;28;20438;-67
2022/01/26 19:54:54;;;;;;;36.90;18.23;;;;;;;;;;5115909;27;21004;-67
2022/01/26 19:57:24;;;;;;;35.00;19.00;;;;;;;;;;5103878;28;21011;-67
2022/01/26 19:59:52;;;;;;;34.70;19.40;;;;;;;;;;5115295;28;20510;-67
2022/01/26 20:02:20;;;;;;;33.97;17.63;;;;;;;;;;5118010;27;20443;-67
2022/01/26 20:04:49;;;;;;;41.73;19.33;;;;;;;;;;5103110;28;20994;-67
2022/01/26 20:07:24;;;;;;;35.60;18.93;;;;;;;;;;5098640;28;20498;-67
2022/01/26 20:09:56;;;;;;;41.50;18.70;;;;;;;;;;5098983;28;20452;-67
2022/01/26 20:12:39;;;;;;;35.10;17.87;;;;;;;;;;5099385;28;20808;-67
2022/01/26 20:15:08;;;;;;;34.10;17.03;;;;;;;;;;5115828;28;20447;-67